Time;durP1;ratioP1;P1;durP2;ratioP2;P2;SDS_P1;SDS_P2;PMS_P1;PMS_P2;Temp;Humidity;BMP_temperature;BMP_pressure;BME280_temperature;BME280_humidity;BME280_pressure;Samples;Min_cycle;Max_cycle;Signal;HPM_P1;HPM_P2
2022/06/21 00:01:57;;;;;;;;;;;;;;;30.45;37.56;94012.50;5065438;28;7196;-61
2022/06/21 00:04:28;;;;;;;;;;;;;;;30.43;37.32;94012.31;5052842;28;9189;-61
2022/06/21 00:06:56;;;;;;;;;;;;;;;30.38;36.66;94007.69;5052200;28;7256;-61
2022/06/21 00:09:23;;;;;;;;;;;;;;;30.34;36.75;94006.59;5035952;28;7109;-61
2022/06/21 00:11:49;;;;;;;;;;;;;;;30.31;36.82;94007.69;5043177;28;7193;-61
2022/06/21 00:14:27;;;;;;;;;;;;;;;30.29;37.53;94011.00;5054785;28;9358;-61
2022/06/21 00:17:13;;;;;;;;;;;;;;;30.26;37.30;94016.88;5057641;28;7275;-61
2022/06/21 00:19:43;;;;;;;;;;;;;;;30.27;37.55;94015.59;5046044;28;7294;-61
2022/06/21 00:22:19;;;;;;;;;;;;;;;30.24;37.13;94013.91;5070736;28;7123;-61
2022/06/21 00:24:46;;;;;;;;;;;;;;;30.24;37.09;94025.00;5055302;28;7202;-61
2022/06/21 00:27:31;;;;;;;;;;;;;;;30.22;37.02;94020.03;5047919;28;9479;-61
2022/06/21 00:29:57;;;;;;;;;;;;;;;30.20;36.68;94011.50;5050847;28;7199;-61
2022/06/21 00:32:23;;;;;;;;;;;;;;;30.19;37.41;94009.31;5034637;28;7798;-61
2022/06/21 00:34:50;;;;;;;;;;;;;;;30.16;37.15;94000.03;5060324;28;7038;-61
2022/06/21 00:37:22;;;;;;;;;;;;;;;30.16;37.41;93996.53;5066950;28;7482;-61
2022/06/21 00:39:49;;;;;;;;;;;;;;;30.14;37.76;93999.09;5049925;28;7283;-61
2022/06/21 00:42:26;;;;;;;;;;;;;;;30.15;37.79;93995.03;5041693;28;7207;-61
2022/06/21 00:45:22;;;;;;;;;;;;;;;30.14;37.68;94001.88;5062290;28;7084;-61
2022/06/21 00:48:17;;;;;;;;;;;;;;;30.10;37.05;93991.13;5044080;28;7196;-61
2022/06/21 00:50:53;;;;;;;;;;;;;;;30.10;37.50;93987.63;4953810;28;7646;-61
2022/06/21 00:53:37;;;;;;;;;;;;;;;30.09;37.61;93981.34;4952606;28;7324;-61
2022/06/21 00:56:21;;;;;;;;;;;;;;;30.08;37.57;93985.38;4944895;28;7060;-61
2022/06/21 00:58:52;;;;;;;;;;;;;;;30.09;37.62;93972.28;4966111;28;8911;-61
2022/06/21 01:01:33;;;;;;;;;;;;;;;30.08;36.91;93971.53;4969055;28;7128;-61
2022/06/21 01:04:14;;;;;;;;;;;;;;;30.06;37.91;93963.00;4973818;28;7006;-61
2022/06/21 01:06:53;;;;;;;;;;;;;;;30.04;37.29;93962.06;4941694;28;9039;-61
2022/06/21 01:09:33;;;;;;;;;;;;;;;30.03;37.63;93960.59;4973754;28;7527;-61
2022/06/21 01:12:33;;;;;;;;;;;;;;;30.02;37.38;93964.66;4954776;28;9035;-61
2022/06/21 01:15:18;;;;;;;;;;;;;;;30.00;36.98;93951.34;4900881;29;7168;-61
2022/06/21 01:18:00;;;;;;;;;;;;;;;30.01;37.32;93949.31;4900624;29;6996;-61
2022/06/21 01:20:43;;;;;;;;;;;;;;;29.98;37.74;93948.38;4915600;29;7334;-61
2022/06/21 01:23:28;;;;;;;;;;;;;;;29.97;38.27;93952.44;4916241;29;9119;-61
2022/06/21 01:26:21;;;;;;;;;;;;;;;29.96;37.66;93956.53;4915647;29;9431;-61
2022/06/21 01:29:21;;;;;;;;;;;;;;;29.96;37.32;93966.88;4971497;28;9069;-61
2022/06/21 01:31:49;;;;;;;;;;;;;;;29.95;37.20;93966.13;4963382;28;7198;-61
2022/06/21 01:34:27;;;;;;;;;;;;;;;29.95;38.09;93971.66;4974046;28;7293;-61
2022/06/21 01:37:21;;;;;;;;;;;;;;;29.93;38.08;93974.25;4972871;28;7041;-61
2022/06/21 01:40:09;;;;;;;;;;;;;;;29.92;37.81;93972.03;4973756;28;9274;-61
2022/06/21 01:42:56;;;;;;;;;;;;;;;29.90;37.86;93967.03;4973267;28;7919;-61
2022/06/21 01:45:57;;;;;;;;;;;;;;;29.90;38.12;93969.06;4972346;28;9966;-61
2022/06/21 01:49:00;;;;;;;;;;;;;;;29.87;37.57;93973.69;4914678;29;8925;-61
2022/06/21 01:51:33;;;;;;;;;;;;;;;29.86;37.32;93972.22;4852853;29;9186;-61
2022/06/21 01:54:02;;;;;;;;;;;;;;;29.86;37.07;93966.66;4897556;29;7326;-61
2022/06/21 01:56:34;;;;;;;;;;;;;;;29.84;37.91;93963.69;4890574;29;7178;-61
2022/06/21 01:59:31;;;;;;;;;;;;;;;29.85;37.60;93962.41;4911730;29;8178;-61
2022/06/21 02:02:04;;;;;;;;;;;;;;;29.84;37.23;93966.44;4917951;29;6997;-61
2022/06/21 02:04:38;;;;;;;;;;;;;;;29.83;37.97;93964.97;4913423;29;7049;-61
2022/06/21 02:07:10;;;;;;;;;;;;;;;29.80;37.67;93946.66;4911814;29;9058;-61
2022/06/21 02:10:13;;;;;;;;;;;;;;;29.81;37.08;93956.47;4911364;29;9450;-61
2022/06/21 02:12:46;;;;;;;;;;;;;;;29.79;37.09;93954.25;4835349;29;9506;-61
2022/06/21 02:15:55;;;;;;;;;;;;;;;29.79;37.92;93953.50;4840533;29;7750;-61
2022/06/21 02:18:41;;;;;;;;;;;;;;;29.76;37.60;93944.25;4859454;29;7213;-61
2022/06/21 02:21:42;;;;;;;;;;;;;;;29.77;37.59;93947.78;4857767;29;9154;-61
2022/06/21 02:24:30;;;;;;;;;;;;;;;29.77;37.77;93942.22;4836606;29;8873;-61
2022/06/21 02:27:09;;;;;;;;;;;;;;;29.73;37.39;93937.00;4854399;29;7027;-61
2022/06/21 02:29:51;;;;;;;;;;;;;;;29.72;38.14;93926.47;4883147;29;7280;-61
2022/06/21 02:32:51;;;;;;;;;;;;;;;29.72;37.17;93916.13;4892026;29;7281;-61
2022/06/21 02:35:41;;;;;;;;;;;;;;;29.71;37.21;93927.78;4852014;29;9047;-61
2022/06/21 02:38:46;;;;;;;;;;;;;;;29.69;37.44;93908.91;4840094;29;6992;-61
2022/06/21 02:41:45;;;;;;;;;;;;;;;29.68;37.20;93909.47;4852056;29;9463;-61
2022/06/21 02:44:34;;;;;;;;;;;;;;;29.66;37.03;93917.59;4843899;29;7230;-61
2022/06/21 02:47:08;;;;;;;;;;;;;;;29.65;37.55;93916.09;4839970;29;7385;-61
2022/06/21 02:49:44;;;;;;;;;;;;;;;29.63;37.67;93919.41;4895068;29;7928;-61
2022/06/21 02:52:17;;;;;;;;;;;;;;;29.61;37.81;93933.09;4885569;29;6926;-61
2022/06/21 02:55:22;;;;;;;;;;;;;;;29.59;37.72;93934.91;4894977;29;7462;-61
2022/06/21 02:57:57;;;;;;;;;;;;;;;29.60;37.46;93933.66;4898322;29;7179;-61
2022/06/21 03:00:24;;;;;;;;;;;;;;;29.59;38.08;93930.13;4913799;29;7340;-61
2022/06/21 03:02:52;;;;;;;;;;;;;;;29.59;37.76;93923.84;4929063;29;6973;-61
2022/06/21 03:05:25;;;;;;;;;;;;;;;29.57;37.32;93912.56;4927114;29;8416;-61
2022/06/21 03:07:57;;;;;;;;;;;;;;;29.55;37.89;93906.81;4907036;29;9457;-61
2022/06/21 03:10:40;;;;;;;;;;;;;;;29.54;37.11;93894.25;4925024;28;9042;-61
2022/06/21 03:13:18;;;;;;;;;;;;;;;29.53;37.71;93892.78;4950249;28;9078;-61
2022/06/21 03:15:52;;;;;;;;;;;;;;;29.51;37.68;93887.78;4952298;28;9094;-61
2022/06/21 03:18:37;;;;;;;;;;;;;;;29.50;37.80;93888.31;4992366;28;9025;-61
2022/06/21 03:21:15;;;;;;;;;;;;;;;29.50;37.54;93889.06;4998398;28;9762;-61
2022/06/21 03:23:46;;;;;;;;;;;;;;;29.50;38.15;93900.16;5014751;28;9082;-61
2022/06/21 03:26:17;;;;;;;;;;;;;;;29.50;37.06;93900.16;5010897;28;7494;-61
2022/06/21 03:28:47;;;;;;;;;;;;;;;29.47;37.48;93897.75;5013988;28;8786;-61
2022/06/21 03:31:31;;;;;;;;;;;;;;;29.50;38.14;93905.69;5011035;28;9418;-61
2022/06/21 03:34:05;;;;;;;;;;;;;;;29.47;38.00;93901.25;5034526;28;7270;-61
2022/06/21 03:36:34;;;;;;;;;;;;;;;29.46;37.75;93901.81;5052227;28;7068;-61
2022/06/21 03:39:20;;;;;;;;;;;;;;;29.44;37.88;93893.28;5059954;28;7111;-61
2022/06/21 03:41:50;;;;;;;;;;;;;;;29.43;37.89;93894.56;5061176;28;8194;-61
2022/06/21 03:44:30;;;;;;;;;;;;;;;29.44;38.14;93893.28;5070976;28;8017;-61
2022/06/21 03:47:05;;;;;;;;;;;;;;;29.43;38.19;93894.56;5048559;28;9187;-61
2022/06/21 03:49:49;;;;;;;;;;;;;;;29.42;37.79;93896.63;5054748;28;6996;-61
2022/06/21 03:52:55;;;;;;;;;;;;;;;29.41;38.23;93892.34;5047430;28;9432;-61
2022/06/21 03:55:24;;;;;;;;;;;;;;;29.41;37.53;93886.06;5045121;28;9527;-61
2022/06/21 03:58:00;;;;;;;;;;;;;;;29.38;38.31;93895.50;5049225;28;7207;-61
2022/06/21 04:00:52;;;;;;;;;;;;;;;29.38;37.68;93898.25;5037769;28;7393;-61
2022/06/21 04:03:39;;;;;;;;;;;;;;;29.37;37.33;93885.69;5041964;28;9040;-61
2022/06/21 04:06:45;;;;;;;;;;;;;;;29.34;37.64;93889.56;5069119;28;7282;-61
2022/06/21 04:09:30;;;;;;;;;;;;;;;29.35;37.87;93880.69;5016163;28;9042;-61
2022/06/21 04:12:06;;;;;;;;;;;;;;;29.33;37.43;93874.97;4992882;28;7467;-61
2022/06/21 04:14:57;;;;;;;;;;;;;;;29.35;38.33;93888.25;4994024;28;8886;-61
2022/06/21 04:17:44;;;;;;;;;;;;;;;29.32;37.63;93883.84;5007194;28;7280;-61
2022/06/21 04:20:22;;;;;;;;;;;;;;;29.31;38.24;93888.63;5009031;28;7011;-61
2022/06/21 04:23:06;;;;;;;;;;;;;;;29.33;37.69;93899.16;4982171;28;7010;-61
2022/06/21 04:25:43;;;;;;;;;;;;;;;29.31;37.87;93899.72;4994401;28;9214;-61
2022/06/21 04:28:53;;;;;;;;;;;;;;;29.31;38.30;93896.19;4988880;28;7556;-61
2022/06/21 04:31:44;;;;;;;;;;;;;;;29.31;38.59;93894.16;4932771;29;9057;-61
2022/06/21 04:34:26;;;;;;;;;;;;;;;29.31;38.56;93898.97;4947869;29;7767;-61
2022/06/21 04:37:04;;;;;;;;;;;;;;;29.30;38.23;93903.00;4948411;28;9335;-61
2022/06/21 04:40:07;;;;;;;;;;;;;;;29.30;38.33;93903.00;4938407;28;9175;-61
2022/06/21 04:42:56;;;;;;;;;;;;;;;29.27;38.42;93910.41;4952337;28;7552;-61
2022/06/21 04:45:37;;;;;;;;;;;;;;;29.26;38.44;93910.94;4956368;28;6988;-61
2022/06/21 04:48:28;;;;;;;;;;;;;;;29.27;38.83;93921.50;4951003;28;6995;-61
2022/06/21 04:51:25;;;;;;;;;;;;;;;29.24;38.14;93914.25;4937595;28;7167;-61
2022/06/21 04:54:06;;;;;;;;;;;;;;;29.24;38.63;93913.50;4953461;28;7337;-61
2022/06/21 04:56:51;;;;;;;;;;;;;;;29.23;38.42;93914.81;4941794;28;8736;-61
2022/06/21 04:59:42;;;;;;;;;;;;;;;29.20;39.13;93922.19;4937771;28;7005;-61
2022/06/21 05:02:25;;;;;;;;;;;;;;;29.18;39.03;93919.22;4951258;28;7204;-61
2022/06/21 05:05:20;;;;;;;;;;;;;;;29.20;39.33;93924.97;4967344;28;7467;-61
2022/06/21 05:08:11;;;;;;;;;;;;;;;29.19;38.63;93917.19;4983971;28;7245;-61
2022/06/21 05:10:44;;;;;;;;;;;;;;;29.18;38.89;93924.75;4973787;28;7194;-61
2022/06/21 05:13:50;;;;;;;;;;;;;;;29.21;38.59;93928.47;4986511;28;7107;-61
2022/06/21 05:16:41;;;;;;;;;;;;;;;29.19;39.03;93914.44;4900433;29;7301;-61
2022/06/21 05:19:19;;;;;;;;;;;;;;;29.18;39.17;93935.84;4952141;28;7255;-61
2022/06/21 05:22:21;;;;;;;;;;;;;;;29.19;39.02;93922.75;4947665;28;9179;-61
2022/06/21 05:24:50;;;;;;;;;;;;;;;29.17;39.19;93914.25;4906893;29;7204;-61
2022/06/21 05:27:39;;;;;;;;;;;;;;;29.20;39.41;93929.75;4913473;29;8098;-60
2022/06/21 05:30:22;;;;;;;;;;;;;;;29.19;39.45;93928.28;4916131;29;7572;-60
2022/06/21 05:32:58;;;;;;;;;;;;;;;29.19;39.19;93919.97;4914068;29;7002;-61
2022/06/21 05:35:33;;;;;;;;;;;;;;;29.20;39.22;93921.44;4915127;29;9189;-60
2022/06/21 05:38:15;;;;;;;;;;;;;;;29.19;38.93;93925.50;4903920;29;7181;-61
2022/06/21 05:41:07;;;;;;;;;;;;;;;29.21;39.44;93920.16;4898668;29;6999;-61
2022/06/21 05:43:42;;;;;;;;;;;;;;;29.21;39.19;93917.41;4912194;29;7949;-61
2022/06/21 05:46:16;;;;;;;;;;;;;;;29.22;38.84;93927.16;4913866;29;6988;-61
2022/06/21 05:48:56;;;;;;;;;;;;;;;29.21;39.01;93920.88;4902156;29;7244;-61
2022/06/21 05:51:31;;;;;;;;;;;;;;;29.22;38.85;93919.59;4941441;28;9181;-61
2022/06/21 05:54:11;;;;;;;;;;;;;;;29.21;39.47;93926.41;4951219;28;9082;-61
2022/06/21 05:56:39;;;;;;;;;;;;;;;29.19;38.99;93917.91;4965643;28;7238;-61
2022/06/21 05:59:41;;;;;;;;;;;;;;;29.20;38.92;93918.66;4980139;28;10721;-61
2022/06/21 06:02:31;;;;;;;;;;;;;;;29.20;39.18;93935.28;5003568;28;9893;-61
2022/06/21 06:05:14;;;;;;;;;;;;;;;29.19;39.54;93933.81;4968916;28;7308;-61
2022/06/21 06:07:54;;;;;;;;;;;;;;;29.15;39.12;93925.81;4977016;28;9437;-61
2022/06/21 06:10:24;;;;;;;;;;;;;;;29.15;39.50;93920.28;4985030;28;9068;-61
2022/06/21 06:13:00;;;;;;;;;;;;;;;29.16;39.38;93919.03;4983835;28;9476;-61
2022/06/21 06:15:34;;;;;;;;;;;;;;;29.15;39.11;93917.50;4962051;28;6957;-61
2022/06/21 06:18:23;;;;;;;;;;;;;;;29.15;39.54;93922.28;4965749;28;9693;-61
2022/06/21 06:21:20;;;;;;;;;;;;;;;29.16;39.63;93918.25;4967094;28;7416;-61
2022/06/21 06:24:26;;;;;;;;;;;;;;;29.16;39.46;93921.81;4992245;28;7349;-61
2022/06/21 06:27:26;;;;;;;;;;;;;;;29.13;39.88;93917.31;4992438;28;7022;-61
2022/06/21 06:29:59;;;;;;;;;;;;;;;29.12;39.74;93920.63;4980444;28;7036;-61
2022/06/21 06:33:11;;;;;;;;;;;;;;;29.13;40.08;93939.47;4981770;28;8005;-61
2022/06/21 06:35:49;;;;;;;;;;;;;;;29.12;40.35;93931.72;4927826;28;7002;-60
2022/06/21 06:38:17;;;;;;;;;;;;;;;29.08;39.58;93938.31;4975979;28;7278;-61
2022/06/21 06:40:57;;;;;;;;;;;;;;;29.12;39.71;93943.53;4991271;28;7397;-61
2022/06/21 06:44:00;;;;;;;;;;;;;;;29.10;39.65;93935.75;4965872;28;9108;-61
2022/06/21 06:46:39;;;;;;;;;;;;;;;29.06;40.31;93940.16;4988563;28;7258;-61
2022/06/21 06:49:40;;;;;;;;;;;;;;;29.06;40.43;93938.13;4987179;28;9051;-61
2022/06/21 06:52:19;;;;;;;;;;;;;;;29.04;40.68;93946.25;4980332;28;9333;-61
2022/06/21 06:55:14;;;;;;;;;;;;;;;29.04;40.13;93937.94;4966387;28;7234;-60
2022/06/21 06:58:05;;;;;;;;;;;;;;;29.04;40.42;93937.94;4945144;28;7276;-61
2022/06/21 07:00:46;;;;;;;;;;;;;;;29.01;41.02;93944.56;4929168;28;8774;-60
2022/06/21 07:03:22;;;;;;;;;;;;;;;29.01;40.46;93933.47;4921686;28;9162;-61
2022/06/21 07:06:06;;;;;;;;;;;;;;;29.01;40.56;93944.56;4949029;28;6985;-61
2022/06/21 07:09:09;;;;;;;;;;;;;;;29.01;41.01;93936.25;4938648;28;7380;-61
2022/06/21 07:11:49;;;;;;;;;;;;;;;28.99;40.71;93957.47;4965481;28;7262;-61
2022/06/21 07:14:24;;;;;;;;;;;;;;;28.99;40.62;93949.91;4999360;28;7333;-61
2022/06/21 07:17:16;;;;;;;;;;;;;;;29.01;40.91;93957.69;5008636;28;7881;-61
2022/06/21 07:19:46;;;;;;;;;;;;;;;29.00;40.69;93956.19;5023646;28;8887;-60
2022/06/21 07:22:19;;;;;;;;;;;;;;;28.99;40.77;93944.34;5006476;28;6983;-61
2022/06/21 07:24:59;;;;;;;;;;;;;;;28.98;40.98;93956.75;5005640;28;7386;-61
2022/06/21 07:27:30;;;;;;;;;;;;;;;29.01;40.92;93955.63;5010586;28;7253;-61
2022/06/21 07:30:07;;;;;;;;;;;;;;;29.00;40.55;93959.69;5017867;28;7153;-61
2022/06/21 07:32:47;;;;;;;;;;;;;;;28.98;40.62;93959.50;5023620;28;6982;-61
2022/06/21 07:35:41;;;;;;;;;;;;;;;28.99;40.88;93963.75;5039523;28;7312;-61
2022/06/21 07:38:30;;;;;;;;;;;;;;;29.00;41.35;93962.47;5040592;28;7193;-61
2022/06/21 07:41:12;;;;;;;;;;;;;;;29.00;40.87;93962.47;5040499;28;8922;-60
2022/06/21 07:43:45;;;;;;;;;;;;;;;29.02;40.96;93959.16;5051870;28;7312;-60
2022/06/21 07:46:19;;;;;;;;;;;;;;;28.98;41.58;93962.28;5067167;28;7409;-62
2022/06/21 07:48:59;;;;;;;;;;;;;;;28.95;41.66;93963.34;5049842;28;9142;-61
2022/06/21 07:51:35;;;;;;;;;;;;;;;28.93;41.79;93960.38;5066609;28;7172;-60
2022/06/21 07:54:10;;;;;;;;;;;;;;;28.94;41.05;93956.34;5062742;28;7400;-60
2022/06/21 07:56:46;;;;;;;;;;;;;;;28.99;41.32;93957.47;5031286;28;9122;-61
2022/06/21 07:59:24;;;;;;;;;;;;;;;28.99;41.05;93954.72;5032579;28;8641;-61
2022/06/21 08:07:48;;;;;;;;;;;;;;;29.04;41.76;93946.25;5062523;28;9240;-61
2022/06/21 08:10:22;;;;;;;;;;;;;;;29.03;41.84;93939.25;5043117;28;7264;-61
2022/06/21 08:12:53;;;;;;;;;;;;;;;29.03;41.81;93939.25;5067227;28;7422;-60
2022/06/21 08:15:26;;;;;;;;;;;;;;;29.03;41.55;93944.78;5067077;28;7284;-60
2022/06/21 08:18:21;;;;;;;;;;;;;;;29.05;41.91;93944.22;5051858;28;7215;-61
2022/06/21 08:21:03;;;;;;;;;;;;;;;29.05;41.75;93939.44;5043864;28;7083;-61
2022/06/21 08:23:53;;;;;;;;;;;;;;;29.08;41.73;93952.19;5060014;28;7061;-60
2022/06/21 08:26:46;;;;;;;;;;;;;;;29.07;42.18;93964.56;5050786;28;7217;-61
2022/06/21 08:29:35;;;;;;;;;;;;;;;29.12;41.49;93967.72;5058037;28;7266;-61
2022/06/21 08:32:49;;;;;;;;;;;;;;;29.09;41.35;93967.53;5066679;28;7126;-61
2022/06/21 08:35:34;;;;;;;;;;;;;;;29.10;42.47;93971.75;4966511;28;7533;-61
2022/06/21 08:41:57;;;;;;;;;;;;;;;29.14;41.66;93993.59;4989532;28;7554;-61
2022/06/21 08:48:34;;;;;;;;;;;;;;;29.18;41.65;94018.19;4976654;28;7070;-60
2022/06/21 08:51:40;;;;;;;;;;;;;;;29.18;42.01;94004.34;4877224;29;8495;-60
2022/06/21 08:54:35;;;;;;;;;;;;;;;29.19;41.11;94003.06;4888546;29;8797;-61
2022/06/21 08:57:23;;;;;;;;;;;;;;;29.19;41.83;93961.50;4886453;29;7042;-61
2022/06/21 09:00:04;;;;;;;;;;;;;;;29.16;42.08;93921.03;4891592;29;7245;-61
2022/06/21 09:02:59;;;;;;;;;;;;;;;29.15;42.23;93945.19;4870643;29;7274;-61
2022/06/21 09:05:46;;;;;;;;;;;;;;;29.17;41.60;93966.88;4874763;29;7531;-61
2022/06/21 09:08:30;;;;;;;;;;;;;;;29.17;42.19;93964.09;4886747;29;8812;-61
2022/06/21 09:11:15;;;;;;;;;;;;;;;29.15;42.24;93955.53;4882374;29;7216;-61
2022/06/21 09:13:46;;;;;;;;;;;;;;;29.12;42.04;93953.88;4872613;29;9118;-61
2022/06/21 09:16:26;;;;;;;;;;;;;;;29.12;42.29;93940.78;4871116;29;7184;-61
2022/06/21 09:19:00;;;;;;;;;;;;;;;29.16;41.63;93940.41;4905830;29;9176;-61
2022/06/21 09:21:31;;;;;;;;;;;;;;;29.18;42.33;93946.16;4923707;29;8453;-61
2022/06/21 09:24:16;;;;;;;;;;;;;;;29.16;42.36;93943.19;4946453;28;6996;-61
2022/06/21 09:26:56;;;;;;;;;;;;;;;29.18;41.44;93949.69;5006285;28;7317;-60
2022/06/21 09:29:50;;;;;;;;;;;;;;;29.18;41.95;93940.63;5065233;28;7244;-60
2022/06/21 09:33:06;;;;;;;;;;;;;;;29.21;41.64;93940.28;5067891;28;9130;-61
2022/06/21 09:35:53;;;;;;;;;;;;;;;29.21;42.86;93954.13;4968584;28;7195;-61
2022/06/21 09:38:46;;;;;;;;;;;;;;;29.21;42.46;93956.16;4949351;28;7218;-61
2022/06/21 09:42:00;;;;;;;;;;;;;;;29.23;42.32;93967.44;4953722;28;7352;-61
2022/06/21 09:44:58;;;;;;;;;;;;;;;29.22;42.07;93963.94;4951853;28;9137;-61
2022/06/21 09:47:58;;;;;;;;;;;;;;;29.22;42.61;93971.50;4956911;28;9135;-61
2022/06/21 09:50:46;;;;;;;;;;;;;;;29.26;41.86;93969.84;4954995;28;6982;-61
2022/06/21 09:53:27;;;;;;;;;;;;;;;29.25;42.18;93970.41;4961291;28;7065;-61
2022/06/21 09:56:37;;;;;;;;;;;;;;;29.29;42.45;93965.25;4965283;28;7440;-61
2022/06/21 09:59:34;;;;;;;;;;;;;;;29.30;42.67;93969.50;4972618;28;9104;-61
2022/06/21 10:02:21;;;;;;;;;;;;;;;29.32;42.80;93975.97;4955184;28;9028;-61
2022/06/21 10:05:11;;;;;;;;;;;;;;;29.32;42.50;93978.03;4959413;28;7268;-60
2022/06/21 10:08:35;;;;;;;;;;;;;;;29.32;43.55;93978.75;4951289;28;9076;-61
2022/06/21 10:11:12;;;;;;;;;;;;;;;29.33;43.57;93968.41;4902317;28;9111;-60
2022/06/21 10:14:02;;;;;;;;;;;;;;;29.35;43.34;93960.28;4984642;28;9101;-61
2022/06/21 10:17:15;;;;;;;;;;;;;;;29.36;43.17;93945.16;4971225;28;8956;-61
2022/06/21 10:20:20;;;;;;;;;;;;;;;29.38;44.19;93953.69;4970436;28;9476;-61
2022/06/21 10:23:02;;;;;;;;;;;;;;;29.39;43.60;93952.38;4979553;28;7214;-61
2022/06/21 10:26:15;;;;;;;;;;;;;;;29.37;44.37;93935.56;4970028;28;7310;-61
2022/06/21 10:29:08;;;;;;;;;;;;;;;29.38;44.01;93937.06;4973576;28;8673;-61
2022/06/21 10:32:24;;;;;;;;;;;;;;;29.41;44.08;93942.22;4990085;28;7945;-61
2022/06/21 10:35:20;;;;;;;;;;;;;;;29.46;44.81;93935.78;4949483;28;9228;-61
2022/06/21 10:38:18;;;;;;;;;;;;;;;29.51;43.66;93939.69;4942929;28;9909;-61
2022/06/21 10:41:18;;;;;;;;;;;;;;;29.47;44.51;93928.22;4967862;28;7101;-61
2022/06/21 10:44:09;;;;;;;;;;;;;;;29.46;44.03;93929.50;5007083;28;7261;-61
2022/06/21 10:47:27;;;;;;;;;;;;;;;29.47;44.04;93917.16;4986385;28;8726;-61
2022/06/21 10:50:24;;;;;;;;;;;;;;;29.46;44.36;93907.34;4939504;28;8184;-61
2022/06/21 10:53:15;;;;;;;;;;;;;;;29.46;43.91;93905.31;4923751;29;7226;-61
2022/06/21 10:59:16;;;;;;;;;;;;;;;29.49;43.63;93909.03;4947618;28;7267;-61
2022/06/21 11:02:19;;;;;;;;;;;;;;;29.48;44.16;93907.53;4940494;28;7000;-61
2022/06/21 11:05:16;;;;;;;;;;;;;;;29.49;43.90;93903.50;4928397;29;7876;-61
2022/06/21 11:08:17;;;;;;;;;;;;;;;29.50;43.52;93888.31;4922964;28;7225;-61
2022/06/21 11:10:53;;;;;;;;;;;;;;;29.51;43.19;93884.28;4941569;28;6989;-61
2022/06/21 11:13:37;;;;;;;;;;;;;;;29.52;43.51;93883.72;4980602;28;8236;-61
2022/06/21 11:16:47;;;;;;;;;;;;;;;29.53;43.08;93887.97;4974082;28;7277;-62
2022/06/21 11:19:38;;;;;;;;;;;;;;;29.55;43.50;93896.50;4969978;28;9433;-61
2022/06/21 11:22:50;;;;;;;;;;;;;;;29.56;42.71;93909.03;4979470;28;7203;-61
2022/06/21 11:25:46;;;;;;;;;;;;;;;29.58;43.23;93894.66;5052718;28;7323;-61
2022/06/21 11:28:29;;;;;;;;;;;;;;;29.58;42.92;93873.19;5051345;28;8885;-61
2022/06/21 11:31:08;;;;;;;;;;;;;;;29.58;43.18;93905.75;5050356;28;7366;-61
2022/06/21 11:34:03;;;;;;;;;;;;;;;29.61;42.93;93932.34;5045789;28;6990;-61
2022/06/21 11:37:06;;;;;;;;;;;;;;;29.60;42.93;93962.09;5046804;28;7038;-62
2022/06/21 11:40:16;;;;;;;;;;;;;;;29.58;42.95;93942.50;5063125;28;7493;-61
2022/06/21 11:42:51;;;;;;;;;;;;;;;29.58;43.31;93870.44;4971412;28;9130;-62
2022/06/21 11:45:49;;;;;;;;;;;;;;;29.59;43.13;93869.16;4974397;28;7287;-61
2022/06/21 11:48:43;;;;;;;;;;;;;;;29.63;43.44;93885.41;4973162;28;9090;-62
2022/06/21 11:51:09;;;;;;;;;;;;;;;29.62;43.75;93890.22;4972591;28;7034;-61
2022/06/21 11:53:59;;;;;;;;;;;;;;;29.64;43.25;93884.13;4985710;28;7639;-61
2022/06/21 11:56:54;;;;;;;;;;;;;;;29.63;43.86;93879.88;4983647;28;7001;-62
2022/06/21 11:59:58;;;;;;;;;;;;;;;29.65;42.69;93893.91;4966929;28;7492;-61
2022/06/21 12:02:41;;;;;;;;;;;;;;;29.63;43.18;93891.72;4877351;29;7264;-61
2022/06/21 12:05:39;;;;;;;;;;;;;;;29.64;43.46;93879.34;4893224;29;7246;-62
2022/06/21 12:08:23;;;;;;;;;;;;;;;29.63;42.91;93877.84;4893961;29;9420;-62
2022/06/21 12:11:17;;;;;;;;;;;;;;;29.66;43.05;93867.69;4893653;29;9042;-62
2022/06/21 12:14:09;;;;;;;;;;;;;;;29.67;43.39;93874.69;4888107;29;7344;-62
2022/06/21 12:17:02;;;;;;;;;;;;;;;29.67;43.21;93875.44;4877054;29;7295;-61
2022/06/21 12:19:41;;;;;;;;;;;;;;;29.69;43.27;93869.34;4940009;28;7130;-62
2022/06/21 12:22:30;;;;;;;;;;;;;;;29.68;42.98;93867.88;4926743;28;7109;-62
2022/06/21 12:24:57;;;;;;;;;;;;;;;29.70;42.62;93874.38;4930202;28;7067;-62
2022/06/21 12:27:33;;;;;;;;;;;;;;;29.68;42.56;93852.00;4935122;28;7913;-61
2022/06/21 12:30:13;;;;;;;;;;;;;;;29.70;43.18;93856.97;4932229;29;7300;-61
2022/06/21 12:32:57;;;;;;;;;;;;;;;29.72;42.88;93852.38;4928845;29;9683;-62
2022/06/21 12:36:18;;;;;;;;;;;;;;;29.75;42.54;93845.75;4938609;28;7019;-61
2022/06/21 12:38:58;;;;;;;;;;;;;;;29.75;42.74;93834.66;5034110;28;9164;-62
2022/06/21 12:41:42;;;;;;;;;;;;;;;29.75;43.44;93833.94;5051308;28;7064;-62
2022/06/21 12:44:50;;;;;;;;;;;;;;;29.75;43.00;93826.34;5056746;28;9504;-62
2022/06/21 12:47:41;;;;;;;;;;;;;;;29.73;42.46;93811.53;5047120;28;7248;-62
2022/06/21 12:53:51;;;;;;;;;;;;;;;29.78;42.28;93797.50;5001796;28;7001;-61
2022/06/21 12:56:50;;;;;;;;;;;;;;;29.78;42.59;93803.06;5000920;28;9388;-62
2022/06/21 12:59:42;;;;;;;;;;;;;;;29.79;42.94;93809.34;5001174;28;7073;-62
2022/06/21 13:02:17;;;;;;;;;;;;;;;29.79;42.68;93817.66;4993568;28;7455;-62
2022/06/21 13:05:33;;;;;;;;;;;;;;;29.82;42.25;93819.31;5013245;28;9137;-62
2022/06/21 13:08:34;;;;;;;;;;;;;;;29.83;42.39;93812.50;5014222;28;9082;-61
2022/06/21 13:11:34;;;;;;;;;;;;;;;29.82;42.11;93797.13;5009006;28;7971;-62
2022/06/21 13:14:22;;;;;;;;;;;;;;;29.82;43.04;93802.69;5009503;28;7279;-61
2022/06/21 13:17:22;;;;;;;;;;;;;;;29.82;42.01;93797.13;5008700;28;9126;-62
2022/06/21 13:20:00;;;;;;;;;;;;;;;29.81;42.03;93790.13;5015886;28;7433;-62
2022/06/21 13:22:47;;;;;;;;;;;;;;;29.81;42.50;93781.81;5010917;28;7505;-62
2022/06/21 13:25:16;;;;;;;;;;;;;;;29.82;42.21;93780.50;5007893;28;9356;-62
2022/06/21 13:28:20;;;;;;;;;;;;;;;29.85;42.49;93779.41;5017305;28;6848;-62
2022/06/21 13:31:04;;;;;;;;;;;;;;;29.87;42.64;93768.50;5047680;28;8152;-62
2022/06/21 13:33:53;;;;;;;;;;;;;;;29.87;42.59;93774.03;5058755;28;7254;-61
2022/06/21 13:36:37;;;;;;;;;;;;;;;29.90;43.13;93772.94;5053834;28;7655;-62
2022/06/21 13:39:24;;;;;;;;;;;;;;;29.90;42.90;93770.19;5066905;28;9194;-62
2022/06/21 13:45:03;;;;;;;;;;;;;;;29.91;42.64;93755.00;5069125;28;7216;-62
2022/06/21 13:47:39;;;;;;;;;;;;;;;29.92;42.33;93764.06;5060912;28;7163;-62
2022/06/21 13:50:27;;;;;;;;;;;;;;;29.92;42.61;93748.19;5057216;28;6996;-61
2022/06/21 13:53:13;;;;;;;;;;;;;;;29.91;42.22;93752.22;5072471;28;7287;-62
2022/06/21 13:55:48;;;;;;;;;;;;;;;29.91;42.71;93749.47;5053982;28;7252;-62
2022/06/21 13:58:37;;;;;;;;;;;;;;;29.92;42.15;93744.66;5052239;28;8726;-61
2022/06/21 14:01:38;;;;;;;;;;;;;;;29.92;42.48;93739.88;5065939;28;9064;-61
2022/06/21 14:04:42;;;;;;;;;;;;;;;29.90;42.31;93731.34;5055184;28;8193;-62
2022/06/21 14:07:50;;;;;;;;;;;;;;;29.92;42.38;93731.53;5046710;28;9556;-61
2022/06/21 14:10:55;;;;;;;;;;;;;;;29.94;41.73;93730.97;5053592;28;7010;-62
2022/06/21 14:13:29;;;;;;;;;;;;;;;29.96;42.48;93726.34;5053770;28;7235;-61
2022/06/21 14:16:00;;;;;;;;;;;;;;;30.01;41.69;93724.69;5055711;28;7809;-62
2022/06/21 14:19:03;;;;;;;;;;;;;;;30.03;42.44;93716.56;5055331;28;9405;-61
2022/06/21 14:22:10;;;;;;;;;;;;;;;30.04;41.58;93704.91;5064802;28;7004;-61
2022/06/21 14:24:53;;;;;;;;;;;;;;;30.06;42.33;93718.22;4959510;28;8279;-61
2022/06/21 14:28:03;;;;;;;;;;;;;;;30.05;41.61;93717.47;4955859;28;7281;-61
2022/06/21 14:30:42;;;;;;;;;;;;;;;30.04;42.18;93716.00;4870765;29;7073;-61
2022/06/21 14:34:01;;;;;;;;;;;;;;;30.04;41.50;93718.75;4859982;29;7264;-62
2022/06/21 14:36:53;;;;;;;;;;;;;;;30.06;42.06;93718.94;4797731;29;7292;-62
2022/06/21 14:39:34;;;;;;;;;;;;;;;30.09;42.23;93714.31;4782590;29;7335;-62
2022/06/21 14:42:22;;;;;;;;;;;;;;;30.10;41.48;93713.03;4784195;29;7112;-62
2022/06/21 14:45:15;;;;;;;;;;;;;;;30.12;42.34;93711.19;4800266;29;8136;-61
2022/06/21 14:47:49;;;;;;;;;;;;;;;30.12;41.88;93713.97;4801446;29;7232;-61
2022/06/21 14:51:01;;;;;;;;;;;;;;;30.13;42.14;93712.66;4802808;29;7297;-61
2022/06/21 14:53:37;;;;;;;;;;;;;;;30.12;42.60;93704.91;4800361;29;7008;-62
2022/06/21 14:56:27;;;;;;;;;;;;;;;30.14;42.58;93710.63;4796230;29;7130;-62
2022/06/21 14:59:17;;;;;;;;;;;;;;;30.12;41.85;93708.41;4800531;29;7446;-62
2022/06/21 15:01:45;;;;;;;;;;;;;;;30.14;42.53;93699.53;4870277;29;9405;-62